sensor_id;sensor_type;location;lat;lon;timestamp;pressure;altitude;pressure_sealevel;temperature;humidity
77288;BME280;66345;42.694;23.346;2023-05-31T00:02:19;95550.25;;;16.64;72.01
77288;BME280;66345;42.694;23.346;2023-05-31T00:08:07;95551.16;;;16.58;72.56
77288;BME280;66345;42.694;23.346;2023-05-31T00:10:54;95553.25;;;16.56;72.59
77288;BME280;66345;42.694;23.346;2023-05-31T00:20:06;95562.47;;;16.60;72.53
77288;BME280;66345;42.694;23.346;2023-05-31T00:40:35;95562.16;;;16.68;72.20
77288;BME280;66345;42.694;23.346;2023-05-31T00:43:00;95568.56;;;16.67;71.86
77288;BME280;66345;42.694;23.346;2023-05-31T00:45:32;95558.81;;;16.54;72.17
77288;BME280;66345;42.694;23.346;2023-05-31T00:51:15;95562.97;;;16.69;72.01
77288;BME280;66345;42.694;23.346;2023-05-31T00:53:50;95563.38;;;16.72;72.05
77288;BME280;66345;42.694;23.346;2023-05-31T00:56:53;95567.91;;;16.72;72.15
77288;BME280;66345;42.694;23.346;2023-05-31T00:59:24;95562.38;;;16.67;72.31
77288;BME280;66345;42.694;23.346;2023-05-31T01:02:00;95568.03;;;16.58;72.57
77288;BME280;66345;42.694;23.346;2023-05-31T01:04:32;95568.13;;;16.52;72.57
77288;BME280;66345;42.694;23.346;2023-05-31T01:07:08;95561.25;;;16.37;73.30
77288;BME280;66345;42.694;23.346;2023-05-31T01:09:50;95559.63;;;16.55;72.77
77288;BME280;66345;42.694;23.346;2023-05-31T01:12:44;95561.59;;;16.48;72.92
77288;BME280;66345;42.694;23.346;2023-05-31T01:21:39;95563.97;;;16.56;73.39
77288;BME280;66345;42.694;23.346;2023-05-31T01:32:09;95557.47;;;16.45;73.73
77288;BME280;66345;42.694;23.346;2023-05-31T01:34:52;95565.28;;;16.47;73.37
77288;BME280;66345;42.694;23.346;2023-05-31T01:37:32;95560.69;;;16.35;74.18
77288;BME280;66345;42.694;23.346;2023-05-31T01:40:00;95561.56;;;16.29;74.29
77288;BME280;66345;42.694;23.346;2023-05-31T01:49:09;95557.84;;;16.30;75.41
77288;BME280;66345;42.694;23.346;2023-05-31T01:51:44;95569.06;;;16.39;75.40
77288;BME280;66345;42.694;23.346;2023-05-31T01:54:50;95567.22;;;16.58;74.34
77288;BME280;66345;42.694;23.346;2023-05-31T01:57:35;95574.97;;;16.66;73.54
77288;BME280;66345;42.694;23.346;2023-05-31T02:00:03;95567.97;;;16.65;73.49
77288;BME280;66345;42.694;23.346;2023-05-31T02:02:38;95559.63;;;16.55;73.61
77288;BME280;66345;42.694;23.346;2023-05-31T02:05:08;95570.84;;;16.70;73.22
77288;BME280;66345;42.694;23.346;2023-05-31T02:07:45;95575.78;;;16.67;73.24
77288;BME280;66345;42.694;23.346;2023-05-31T02:10:27;95562.91;;;16.38;74.35
77288;BME280;66345;42.694;23.346;2023-05-31T02:13:27;95575.09;;;16.53;74.25
77288;BME280;66345;42.694;23.346;2023-05-31T02:16:08;95567.06;;;16.53;73.97
77288;BME280;66345;42.694;23.346;2023-05-31T02:18:43;95576.25;;;16.63;73.95
77288;BME280;66345;42.694;23.346;2023-05-31T02:21:41;95579.44;;;16.35;74.84
77288;BME280;66345;42.694;23.346;2023-05-31T02:24:50;95587.28;;;16.30;75.18
77288;BME280;66345;42.694;23.346;2023-05-31T02:27:36;95586.06;;;16.33;75.25
77288;BME280;66345;42.694;23.346;2023-05-31T02:30:44;95576.16;;;16.33;75.40
77288;BME280;66345;42.694;23.346;2023-05-31T02:33:49;95570.63;;;16.47;74.80
77288;BME280;66345;42.694;23.346;2023-05-31T02:39:21;95567.66;;;16.36;74.68
77288;BME280;66345;42.694;23.346;2023-05-31T02:41:50;95574.06;;;16.35;74.57
77288;BME280;66345;42.694;23.346;2023-05-31T02:44:15;95568.59;;;16.05;75.80
77288;BME280;66345;42.694;23.346;2023-05-31T02:46:47;95583.56;;;16.13;75.22
77288;BME280;66345;42.694;23.346;2023-05-31T02:49:29;95568.09;;;16.15;75.52
77288;BME280;66345;42.694;23.346;2023-05-31T02:52:09;95576.41;;;16.07;75.86
77288;BME280;66345;42.694;23.346;2023-05-31T02:54:40;95570.13;;;16.20;76.05
77288;BME280;66345;42.694;23.346;2023-05-31T02:57:09;95575.31;;;16.15;76.01
77288;BME280;66345;42.694;23.346;2023-05-31T02:59:37;95578.16;;;16.20;75.91
77288;BME280;66345;42.694;23.346;2023-05-31T03:02:03;95585.13;;;16.21;75.90
77288;BME280;66345;42.694;23.346;2023-05-31T03:04:28;95597.31;;;16.17;76.49
77288;BME280;66345;42.694;23.346;2023-05-31T03:06:54;95580.81;;;16.20;76.38
77288;BME280;66345;42.694;23.346;2023-05-31T03:09:21;95589.44;;;16.22;76.09
77288;BME280;66345;42.694;23.346;2023-05-31T03:11:46;95580.88;;;16.13;75.71
77288;BME280;66345;42.694;23.346;2023-05-31T03:14:12;95583.56;;;16.31;75.36
77288;BME280;66345;42.694;23.346;2023-05-31T03:16:37;95590.72;;;16.19;75.78
77288;BME280;66345;42.694;23.346;2023-05-31T03:19:03;95586.41;;;16.36;75.21
77288;BME280;66345;42.694;23.346;2023-05-31T03:21:29;95582.25;;;16.41;74.64
77288;BME280;66345;42.694;23.346;2023-05-31T03:23:55;95587.84;;;16.57;74.08
77288;BME280;66345;42.694;23.346;2023-05-31T03:26:20;95587.16;;;16.62;73.74
77288;BME280;66345;42.694;23.346;2023-05-31T03:28:46;95589.72;;;16.57;73.76
77288;BME280;66345;42.694;23.346;2023-05-31T03:31:11;95590.75;;;16.56;73.60
77288;BME280;66345;42.694;23.346;2023-05-31T03:33:37;95597.78;;;16.32;74.40
77288;BME280;66345;42.694;23.346;2023-05-31T03:36:03;95589.53;;;16.52;73.89
77288;BME280;66345;42.694;23.346;2023-05-31T03:38:28;95597.72;;;16.38;73.54
77288;BME280;66345;42.694;23.346;2023-05-31T03:40:54;95588.72;;;16.51;73.46
77288;BME280;66345;42.694;23.346;2023-05-31T03:43:19;95595.28;;;16.55;73.71
77288;BME280;66345;42.694;23.346;2023-05-31T03:45:45;95604.72;;;16.58;73.43
77288;BME280;66345;42.694;23.346;2023-05-31T03:48:11;95606.69;;;16.69;73.17
77288;BME280;66345;42.694;23.346;2023-05-31T03:50:38;95603.19;;;16.87;72.63
77288;BME280;66345;42.694;23.346;2023-05-31T03:53:04;95607.78;;;16.98;72.03
77288;BME280;66345;42.694;23.346;2023-05-31T03:55:30;95607.06;;;16.73;72.72
77288;BME280;66345;42.694;23.346;2023-05-31T03:57:56;95607.84;;;16.36;74.26
77288;BME280;66345;42.694;23.346;2023-05-31T04:00:21;95616.91;;;16.35;73.84
77288;BME280;66345;42.694;23.346;2023-05-31T04:02:46;95610.63;;;16.23;74.52
77288;BME280;66345;42.694;23.346;2023-05-31T04:05:12;95612.59;;;16.34;74.25
77288;BME280;66345;42.694;23.346;2023-05-31T04:07:37;95603.84;;;16.64;73.33
77288;BME280;66345;42.694;23.346;2023-05-31T04:10:03;95613.81;;;16.57;72.78
77288;BME280;66345;42.694;23.346;2023-05-31T04:12:28;95609.97;;;16.71;72.60
77288;BME280;66345;42.694;23.346;2023-05-31T04:14:54;95611.84;;;16.46;73.37
77288;BME280;66345;42.694;23.346;2023-05-31T04:17:19;95614.34;;;16.65;72.85
77288;BME280;66345;42.694;23.346;2023-05-31T04:19:45;95608.63;;;16.80;72.02
77288;BME280;66345;42.694;23.346;2023-05-31T04:22:11;95607.66;;;16.56;72.60
77288;BME280;66345;42.694;23.346;2023-05-31T04:24:36;95615.00;;;16.61;72.78
77288;BME280;66345;42.694;23.346;2023-05-31T04:27:01;95619.94;;;16.64;72.72
77288;BME280;66345;42.694;23.346;2023-05-31T04:29:29;95625.63;;;16.68;72.27
77288;BME280;66345;42.694;23.346;2023-05-31T04:31:54;95622.34;;;16.72;72.48
77288;BME280;66345;42.694;23.346;2023-05-31T04:34:20;95624.81;;;16.67;72.37
77288;BME280;66345;42.694;23.346;2023-05-31T04:36:45;95629.63;;;16.83;71.65
77288;BME280;66345;42.694;23.346;2023-05-31T04:39:14;95628.88;;;16.95;71.62
77288;BME280;66345;42.694;23.346;2023-05-31T04:41:41;95634.81;;;16.97;71.49
77288;BME280;66345;42.694;23.346;2023-05-31T04:44:06;95635.19;;;17.18;70.31
77288;BME280;66345;42.694;23.346;2023-05-31T04:46:32;95635.09;;;17.07;70.90
77288;BME280;66345;42.694;23.346;2023-05-31T04:48:58;95636.22;;;17.17;70.60
77288;BME280;66345;42.694;23.346;2023-05-31T04:51:23;95633.88;;;17.39;70.21
77288;BME280;66345;42.694;23.346;2023-05-31T04:53:49;95639.56;;;17.61;69.83
77288;BME280;66345;42.694;23.346;2023-05-31T04:56:14;95634.59;;;17.77;68.60
77288;BME280;66345;42.694;23.346;2023-05-31T04:58:40;95644.69;;;17.93;68.35
77288;BME280;66345;42.694;23.346;2023-05-31T05:01:06;95638.06;;;18.30;66.73
77288;BME280;66345;42.694;23.346;2023-05-31T05:03:32;95640.25;;;18.57;66.05
77288;BME280;66345;42.694;23.346;2023-05-31T05:06:01;95647.38;;;18.87;65.22
77288;BME280;66345;42.694;23.346;2023-05-31T05:08:27;95652.56;;;18.76;65.14
77288;BME280;66345;42.694;23.346;2023-05-31T05:10:53;95650.88;;;18.99;64.28
77288;BME280;66345;42.694;23.346;2023-05-31T05:13:18;95657.22;;;18.81;65.12
77288;BME280;66345;42.694;23.346;2023-05-31T05:15:44;95656.75;;;18.84;65.40
77288;BME280;66345;42.694;23.346;2023-05-31T05:18:09;95660.25;;;18.73;64.74
77288;BME280;66345;42.694;23.346;2023-05-31T05:20:35;95670.44;;;18.82;64.85
77288;BME280;66345;42.694;23.346;2023-05-31T05:23:00;95670.94;;;18.02;67.52
77288;BME280;66345;42.694;23.346;2023-05-31T05:25:32;95678.38;;;17.89;68.27
77288;BME280;66345;42.694;23.346;2023-05-31T05:27:57;95676.47;;;18.08;67.39
77288;BME280;66345;42.694;23.346;2023-05-31T05:30:23;95679.19;;;18.66;65.83
77288;BME280;66345;42.694;23.346;2023-05-31T05:32:48;95669.09;;;19.08;65.16
77288;BME280;66345;42.694;23.346;2023-05-31T05:35:14;95667.41;;;19.31;63.89
77288;BME280;66345;42.694;23.346;2023-05-31T05:37:39;95671.69;;;19.03;64.28
77288;BME280;66345;42.694;23.346;2023-05-31T05:40:05;95671.59;;;19.38;63.66
77288;BME280;66345;42.694;23.346;2023-05-31T05:42:32;95670.31;;;19.70;63.00
77288;BME280;66345;42.694;23.346;2023-05-31T05:45:02;95677.22;;;19.37;63.20
77288;BME280;66345;42.694;23.346;2023-05-31T05:47:27;95678.91;;;19.55;62.89
77288;BME280;66345;42.694;23.346;2023-05-31T05:49:53;95678.03;;;19.94;62.06
77288;BME280;66345;42.694;23.346;2023-05-31T05:52:18;95683.66;;;19.76;63.16
77288;BME280;66345;42.694;23.346;2023-05-31T05:54:43;95683.22;;;19.96;62.13
77288;BME280;66345;42.694;23.346;2023-05-31T05:57:09;95685.03;;;19.79;62.23
77288;BME280;66345;42.694;23.346;2023-05-31T05:59:34;95686.97;;;20.12;61.14
77288;BME280;66345;42.694;23.346;2023-05-31T06:02:00;95680.34;;;19.57;61.90
77288;BME280;66345;42.694;23.346;2023-05-31T06:04:25;95681.06;;;19.81;61.74
77288;BME280;66345;42.694;23.346;2023-05-31T06:06:50;95683.28;;;20.01;60.65
77288;BME280;66345;42.694;23.346;2023-05-31T06:09:16;95686.66;;;19.80;62.60
77288;BME280;66345;42.694;23.346;2023-05-31T06:11:42;95690.41;;;20.07;62.07
77288;BME280;66345;42.694;23.346;2023-05-31T06:14:07;95681.09;;;20.32;60.08
77288;BME280;66345;42.694;23.346;2023-05-31T06:16:32;95687.50;;;20.59;58.78
77288;BME280;66345;42.694;23.346;2023-05-31T06:18:58;95682.84;;;20.71;59.02
77288;BME280;66345;42.694;23.346;2023-05-31T06:21:23;95682.19;;;20.64;58.81
77288;BME280;66345;42.694;23.346;2023-05-31T06:23:49;95691.81;;;20.77;58.21
77288;BME280;66345;42.694;23.346;2023-05-31T06:26:14;95694.31;;;19.71;61.95
77288;BME280;66345;42.694;23.346;2023-05-31T06:28:40;95688.19;;;19.47;63.36
77288;BME280;66345;42.694;23.346;2023-05-31T06:31:05;95695.00;;;19.38;63.14
77288;BME280;66345;42.694;23.346;2023-05-31T06:33:33;95695.09;;;19.43;62.60
77288;BME280;66345;42.694;23.346;2023-05-31T06:35:58;95689.44;;;20.13;61.16
77288;BME280;66345;42.694;23.346;2023-05-31T06:38:24;95696.91;;;20.57;59.97
77288;BME280;66345;42.694;23.346;2023-05-31T06:40:49;95692.44;;;20.00;61.36
77288;BME280;66345;42.694;23.346;2023-05-31T06:43:15;95694.75;;;20.75;59.86
77288;BME280;66345;42.694;23.346;2023-05-31T06:45:40;95695.31;;;20.10;60.68
77288;BME280;66345;42.694;23.346;2023-05-31T06:48:07;95687.41;;;20.54;59.25
77288;BME280;66345;42.694;23.346;2023-05-31T06:50:33;95689.56;;;20.91;58.37
77288;BME280;66345;42.694;23.346;2023-05-31T06:52:59;95690.69;;;20.56;58.52
77288;BME280;66345;42.694;23.346;2023-05-31T06:55:24;95695.22;;;20.05;60.22
77288;BME280;66345;42.694;23.346;2023-05-31T06:57:50;95689.47;;;19.85;61.07
77288;BME280;66345;42.694;23.346;2023-05-31T07:00:16;95685.94;;;20.80;58.88
77288;BME280;66345;42.694;23.346;2023-05-31T07:02:41;95687.81;;;20.46;59.23
77288;BME280;66345;42.694;23.346;2023-05-31T07:05:07;95696.16;;;20.61;59.56
77288;BME280;66345;42.694;23.346;2023-05-31T07:07:32;95692.13;;;20.81;59.11
77288;BME280;66345;42.694;23.346;2023-05-31T07:09:58;95693.78;;;20.65;59.28
77288;BME280;66345;42.694;23.346;2023-05-31T07:12:23;95688.03;;;20.78;58.07
77288;BME280;66345;42.694;23.346;2023-05-31T07:14:49;95689.63;;;20.57;58.38
77288;BME280;66345;42.694;23.346;2023-05-31T07:17:14;95681.06;;;21.21;56.64
77288;BME280;66345;42.694;23.346;2023-05-31T07:19:47;95692.28;;;20.91;56.40
77288;BME280;66345;42.694;23.346;2023-05-31T07:22:14;95694.91;;;20.69;57.75
77288;BME280;66345;42.694;23.346;2023-05-31T07:24:41;95695.25;;;20.72;57.51
77288;BME280;66345;42.694;23.346;2023-05-31T07:27:07;95692.03;;;21.31;56.44
77288;BME280;66345;42.694;23.346;2023-05-31T07:29:33;95687.75;;;21.35;56.37
77288;BME280;66345;42.694;23.346;2023-05-31T07:31:59;95677.94;;;22.27;54.23
77288;BME280;66345;42.694;23.346;2023-05-31T07:34:24;95679.75;;;22.48;52.54
77288;BME280;66345;42.694;23.346;2023-05-31T07:36:49;95686.09;;;21.78;54.15
77288;BME280;66345;42.694;23.346;2023-05-31T07:39:15;95680.97;;;22.35;52.52
77288;BME280;66345;42.694;23.346;2023-05-31T07:41:41;95681.22;;;22.66;52.09
77288;BME280;66345;42.694;23.346;2023-05-31T07:44:06;95673.09;;;23.03;51.22
77288;BME280;66345;42.694;23.346;2023-05-31T07:46:34;95678.56;;;23.71;49.83
77288;BME280;66345;42.694;23.346;2023-05-31T07:49:02;95679.16;;;23.20;50.46
77288;BME280;66345;42.694;23.346;2023-05-31T07:51:30;95683.53;;;23.32;50.39
77288;BME280;66345;42.694;23.346;2023-05-31T07:53:57;95678.31;;;23.83;50.08
77288;BME280;66345;42.694;23.346;2023-05-31T07:56:22;95683.06;;;23.45;49.37
77288;BME280;66345;42.694;23.346;2023-05-31T07:58:48;95678.13;;;24.30;48.51
77288;BME280;66345;42.694;23.346;2023-05-31T08:01:13;95676.38;;;25.41;45.39
77288;BME280;66345;42.694;23.346;2023-05-31T08:03:40;95673.72;;;25.26;45.88
77288;BME280;66345;42.694;23.346;2023-05-31T08:06:06;95663.69;;;25.86;44.10
77288;BME280;66345;42.694;23.346;2023-05-31T08:08:31;95661.03;;;27.12;42.52
77288;BME280;66345;42.694;23.346;2023-05-31T08:11:02;95657.00;;;27.33;41.43
77288;BME280;66345;42.694;23.346;2023-05-31T08:13:28;95645.41;;;31.54;32.96
77288;BME280;66345;42.694;23.346;2023-05-31T08:15:54;95649.63;;;31.52;31.90
77288;BME280;66345;42.694;23.346;2023-05-31T08:18:21;95647.81;;;32.91;30.42
77288;BME280;66345;42.694;23.346;2023-05-31T08:20:47;95656.22;;;33.79;28.32
77288;BME280;66345;42.694;23.346;2023-05-31T08:23:19;95653.81;;;30.64;32.99
77288;BME280;66345;42.694;23.346;2023-05-31T08:25:46;95653.72;;;30.70;33.00
77288;BME280;66345;42.694;23.346;2023-05-31T08:28:12;95653.16;;;30.23;34.26
77288;BME280;66345;42.694;23.346;2023-05-31T08:30:37;95658.97;;;27.95;37.64
77288;BME280;66345;42.694;23.346;2023-05-31T08:33:04;95651.00;;;28.36;36.26
77288;BME280;66345;42.694;23.346;2023-05-31T08:35:30;95649.94;;;28.83;35.83
77288;BME280;66345;42.694;23.346;2023-05-31T08:37:56;95645.84;;;28.99;35.40
77288;BME280;66345;42.694;23.346;2023-05-31T08:40:21;95635.88;;;27.68;37.68
77288;BME280;66345;42.694;23.346;2023-05-31T08:42:59;95638.47;;;27.97;37.45
77288;BME280;66345;42.694;23.346;2023-05-31T08:45:26;95641.91;;;26.30;40.49
77288;BME280;66345;42.694;23.346;2023-05-31T08:50:49;95643.16;;;26.77;40.22
77288;BME280;66345;42.694;23.346;2023-05-31T08:53:17;95630.41;;;26.96;40.92
77288;BME280;66345;42.694;23.346;2023-05-31T08:55:44;95632.41;;;28.19;39.52
77288;BME280;66345;42.694;23.346;2023-05-31T08:58:12;95628.13;;;26.79;39.98
77288;BME280;66345;42.694;23.346;2023-05-31T09:00:38;95629.31;;;25.51;43.09
77288;BME280;66345;42.694;23.346;2023-05-31T09:03:10;95619.03;;;25.42;43.80
77288;BME280;66345;42.694;23.346;2023-05-31T09:05:35;95611.44;;;27.15;40.37
77288;BME280;66345;42.694;23.346;2023-05-31T09:08:01;95616.41;;;28.12;37.66
77288;BME280;66345;42.694;23.346;2023-05-31T09:10:27;95611.31;;;27.25;39.58
77288;BME280;66345;42.694;23.346;2023-05-31T09:12:54;95618.00;;;27.14;38.33
77288;BME280;66345;42.694;23.346;2023-05-31T09:15:22;95613.22;;;27.01;39.53
77288;BME280;66345;42.694;23.346;2023-05-31T09:17:49;95608.28;;;29.46;35.07
77288;BME280;66345;42.694;23.346;2023-05-31T09:20:14;95612.25;;;29.13;34.77
77288;BME280;66345;42.694;23.346;2023-05-31T09:22:40;95607.50;;;28.07;37.56
77288;BME280;66345;42.694;23.346;2023-05-31T09:25:06;95607.34;;;25.42;43.24
77288;BME280;66345;42.694;23.346;2023-05-31T09:27:37;95618.44;;;24.66;44.89
77288;BME280;66345;42.694;23.346;2023-05-31T09:30:13;95604.06;;;24.24;45.80
77288;BME280;66345;42.694;23.346;2023-05-31T09:32:39;95600.16;;;25.02;43.31
77288;BME280;66345;42.694;23.346;2023-05-31T09:35:15;95602.38;;;24.84;42.93
77288;BME280;66345;42.694;23.346;2023-05-31T09:37:49;95593.91;;;25.16;42.81
77288;BME280;66345;42.694;23.346;2023-05-31T09:40:22;95602.44;;;23.98;44.11
77288;BME280;66345;42.694;23.346;2023-05-31T09:42:55;95588.47;;;26.05;40.56
77288;BME280;66345;42.694;23.346;2023-05-31T09:45:46;95596.78;;;26.24;41.05
77288;BME280;66345;42.694;23.346;2023-05-31T09:48:14;95600.16;;;25.71;41.78
77288;BME280;66345;42.694;23.346;2023-05-31T09:50:39;95598.94;;;25.88;40.99
77288;BME280;66345;42.694;23.346;2023-05-31T09:53:05;95596.22;;;25.38;42.33
77288;BME280;66345;42.694;23.346;2023-05-31T09:55:40;95593.16;;;25.55;43.00
77288;BME280;66345;42.694;23.346;2023-05-31T09:58:05;95577.97;;;26.62;42.30
77288;BME280;66345;42.694;23.346;2023-05-31T10:00:31;95576.53;;;26.93;41.20
77288;BME280;66345;42.694;23.346;2023-05-31T10:02:57;95583.84;;;25.66;43.23
77288;BME280;66345;42.694;23.346;2023-05-31T10:05:22;95581.69;;;25.09;44.36
77288;BME280;66345;42.694;23.346;2023-05-31T10:07:49;95576.53;;;25.12;45.93
77288;BME280;66345;42.694;23.346;2023-05-31T10:10:15;95571.09;;;25.12;48.22
77288;BME280;66345;42.694;23.346;2023-05-31T10:12:57;95577.69;;;24.81;49.33
77288;BME280;66345;42.694;23.346;2023-05-31T10:15:24;95585.88;;;24.60;49.43
77288;BME280;66345;42.694;23.346;2023-05-31T10:18:15;95578.56;;;24.41;51.98
77288;BME280;66345;42.694;23.346;2023-05-31T10:23:24;95567.84;;;25.05;51.73
77288;BME280;66345;42.694;23.346;2023-05-31T10:25:56;95575.56;;;24.68;51.29
77288;BME280;66345;42.694;23.346;2023-05-31T10:28:28;95565.28;;;24.24;50.44
77288;BME280;66345;42.694;23.346;2023-05-31T10:30:56;95564.75;;;24.37;50.00
77288;BME280;66345;42.694;23.346;2023-05-31T10:33:25;95563.13;;;24.00;47.78
77288;BME280;66345;42.694;23.346;2023-05-31T10:35:56;95553.91;;;24.01;46.21
77288;BME280;66345;42.694;23.346;2023-05-31T10:38:28;95556.63;;;23.86;45.62
77288;BME280;66345;42.694;23.346;2023-05-31T10:41:02;95565.00;;;23.64;46.14
77288;BME280;66345;42.694;23.346;2023-05-31T10:43:36;95565.28;;;23.63;48.00
77288;BME280;66345;42.694;23.346;2023-05-31T10:46:12;95566.38;;;23.92;46.86
77288;BME280;66345;42.694;23.346;2023-05-31T10:48:52;95566.66;;;23.80;46.44
77288;BME280;66345;42.694;23.346;2023-05-31T10:51:19;95561.03;;;23.04;47.90
77288;BME280;66345;42.694;23.346;2023-05-31T10:53:45;95554.84;;;23.14;48.09
77288;BME280;66345;42.694;23.346;2023-05-31T10:56:13;95566.38;;;23.67;48.98
77288;BME280;66345;42.694;23.346;2023-05-31T10:58:40;95556.88;;;23.95;47.63
77288;BME280;66345;42.694;23.346;2023-05-31T11:01:10;95561.50;;;23.69;47.60
77288;BME280;66345;42.694;23.346;2023-05-31T11:03:43;95566.38;;;22.41;49.90
77288;BME280;66345;42.694;23.346;2023-05-31T11:06:08;95563.47;;;22.11;52.14
77288;BME280;66345;42.694;23.346;2023-05-31T11:08:36;95552.41;;;22.55;53.74
77288;BME280;66345;42.694;23.346;2023-05-31T11:11:45;95546.19;;;23.17;50.71
77288;BME280;66345;42.694;23.346;2023-05-31T11:19:32;95549.19;;;23.25;52.19
77288;BME280;66345;42.694;23.346;2023-05-31T11:22:09;95549.94;;;23.01;48.96
77288;BME280;66345;42.694;23.346;2023-05-31T11:27:11;95539.53;;;23.60;48.81
77288;BME280;66345;42.694;23.346;2023-05-31T11:35:02;95522.56;;;22.92;47.92
77288;BME280;66345;42.694;23.346;2023-05-31T11:37:29;95530.81;;;23.38;47.78
77288;BME280;66345;42.694;23.346;2023-05-31T11:39:55;95528.44;;;23.87;47.06
77288;BME280;66345;42.694;23.346;2023-05-31T11:42:21;95539.16;;;23.16;58.61
77288;BME280;66345;42.694;23.346;2023-05-31T11:44:49;95556.72;;;20.78;68.70
77288;BME280;66345;42.694;23.346;2023-05-31T11:50:16;95553.88;;;18.65;82.82
77288;BME280;66345;42.694;23.346;2023-05-31T11:52:42;95548.75;;;18.64;85.16
77288;BME280;66345;42.694;23.346;2023-05-31T11:55:08;95556.09;;;18.80;84.38
77288;BME280;66345;42.694;23.346;2023-05-31T11:57:45;95541.06;;;18.55;81.12
77288;BME280;66345;42.694;23.346;2023-05-31T12:00:11;95544.34;;;18.34;80.48
77288;BME280;66345;42.694;23.346;2023-05-31T12:02:44;95549.72;;;18.34;79.78
77288;BME280;66345;42.694;23.346;2023-05-31T12:05:15;95540.63;;;18.35;85.61
77288;BME280;66345;42.694;23.346;2023-05-31T12:07:42;95539.81;;;18.35;80.22
77288;BME280;66345;42.694;23.346;2023-05-31T12:10:08;95551.97;;;18.25;78.85
77288;BME280;66345;42.694;23.346;2023-05-31T12:12:35;95550.69;;;17.93;78.77
77288;BME280;66345;42.694;23.346;2023-05-31T12:15:00;95550.44;;;17.71;81.28
77288;BME280;66345;42.694;23.346;2023-05-31T12:17:30;95549.19;;;17.43;80.81
77288;BME280;66345;42.694;23.346;2023-05-31T12:19:56;95547.97;;;17.16;86.84
77288;BME280;66345;42.694;23.346;2023-05-31T12:22:21;95544.09;;;17.12;88.91
77288;BME280;66345;42.694;23.346;2023-05-31T12:24:52;95539.13;;;17.27;89.02
77288;BME280;66345;42.694;23.346;2023-05-31T12:27:19;95529.34;;;17.44;90.83
77288;BME280;66345;42.694;23.346;2023-05-31T12:29:45;95517.13;;;17.60;88.78
77288;BME280;66345;42.694;23.346;2023-05-31T12:32:11;95516.31;;;17.60;92.06
77288;BME280;66345;42.694;23.346;2023-05-31T12:34:38;95513.00;;;17.76;92.58
77288;BME280;66345;42.694;23.346;2023-05-31T12:37:10;95513.91;;;17.82;92.03
77288;BME280;66345;42.694;23.346;2023-05-31T12:39:37;95515.69;;;17.99;93.32
77288;BME280;66345;42.694;23.346;2023-05-31T12:42:06;95503.16;;;18.05;91.51
77288;BME280;66345;42.694;23.346;2023-05-31T12:44:32;95505.84;;;18.17;91.61
77288;BME280;66345;42.694;23.346;2023-05-31T12:47:08;95493.88;;;18.36;92.82
77288;BME280;66345;42.694;23.346;2023-05-31T12:49:35;95493.63;;;18.49;92.35
77288;BME280;66345;42.694;23.346;2023-05-31T12:52:10;95493.84;;;18.60;92.07
77288;BME280;66345;42.694;23.346;2023-05-31T12:54:37;95500.59;;;18.74;92.17
77288;BME280;66345;42.694;23.346;2023-05-31T12:57:05;95504.06;;;18.86;90.43
77288;BME280;66345;42.694;23.346;2023-05-31T12:59:32;95508.00;;;18.95;91.03
77288;BME280;66345;42.694;23.346;2023-05-31T13:01:58;95497.38;;;18.89;91.44
77288;BME280;66345;42.694;23.346;2023-05-31T13:04:24;95508.19;;;19.05;91.52
77288;BME280;66345;42.694;23.346;2023-05-31T13:06:51;95507.97;;;19.24;90.01
77288;BME280;66345;42.694;23.346;2023-05-31T13:09:18;95507.59;;;19.49;87.69
77288;BME280;66345;42.694;23.346;2023-05-31T13:11:44;95505.38;;;19.57;87.91
77288;BME280;66345;42.694;23.346;2023-05-31T13:14:15;95504.53;;;19.57;87.42
77288;BME280;66345;42.694;23.346;2023-05-31T13:16:41;95504.75;;;19.55;88.71
77288;BME280;66345;42.694;23.346;2023-05-31T13:19:07;95506.19;;;19.58;89.94
77288;BME280;66345;42.694;23.346;2023-05-31T13:21:34;95506.31;;;19.51;87.89
77288;BME280;66345;42.694;23.346;2023-05-31T13:24:04;95502.53;;;19.35;87.71
77288;BME280;66345;42.694;23.346;2023-05-31T13:26:32;95520.00;;;19.50;87.56
77288;BME280;66345;42.694;23.346;2023-05-31T13:28:59;95506.22;;;19.46;86.93
77288;BME280;66345;42.694;23.346;2023-05-31T13:31:26;95506.94;;;19.41;81.38
77288;BME280;66345;42.694;23.346;2023-05-31T13:33:52;95513.75;;;18.87;77.14
77288;BME280;66345;42.694;23.346;2023-05-31T13:36:19;95509.13;;;18.82;66.80
77288;BME280;66345;42.694;23.346;2023-05-31T13:38:45;95504.81;;;18.70;77.77
77288;BME280;66345;42.694;23.346;2023-05-31T13:41:11;95511.53;;;18.32;81.25
77288;BME280;66345;42.694;23.346;2023-05-31T13:43:37;95516.47;;;17.88;82.40
77288;BME280;66345;42.694;23.346;2023-05-31T13:46:03;95519.41;;;18.22;83.03
77288;BME280;66345;42.694;23.346;2023-05-31T13:48:29;95517.75;;;18.21;83.34
77288;BME280;66345;42.694;23.346;2023-05-31T13:50:55;95515.63;;;18.35;82.91
77288;BME280;66345;42.694;23.346;2023-05-31T13:53:21;95515.88;;;18.33;82.43
77288;BME280;66345;42.694;23.346;2023-05-31T13:55:47;95518.91;;;18.25;82.84
77288;BME280;66345;42.694;23.346;2023-05-31T13:58:13;95520.88;;;18.41;83.78
77288;BME280;66345;42.694;23.346;2023-05-31T14:00:38;95525.88;;;18.49;82.67
77288;BME280;66345;42.694;23.346;2023-05-31T14:03:06;95518.66;;;18.38;83.14
77288;BME280;66345;42.694;23.346;2023-05-31T14:05:32;95521.81;;;18.47;83.18
77288;BME280;66345;42.694;23.346;2023-05-31T14:07:57;95532.63;;;18.75;81.24
77288;BME280;66345;42.694;23.346;2023-05-31T14:10:24;95524.13;;;18.55;80.83
77288;BME280;66345;42.694;23.346;2023-05-31T14:12:50;95518.41;;;18.51;78.21
77288;BME280;66345;42.694;23.346;2023-05-31T14:15:16;95526.69;;;18.50;77.34
77288;BME280;66345;42.694;23.346;2023-05-31T14:17:42;95518.19;;;18.41;76.54